Latest Weather Observations for Coles Point

IDS60801

Issued at 10:35 am CDT Saturday 29 November 2014 (issued every 30 minutes, with the page automatically refreshed every 10 minutes)

About weather observations | Map of weather stations | Latest weather observations for SA | Other Formats
Station Details ID: 018191 Name: COLES POINT Lat: -34.37 Lon: 135.37 Height: 28.0 m
Data from the previous 72 hours. | See also: Recent months at Coles Point
Date/Time
CDT
Temp
°C
App
Temp
°C
Dew
Point
Rel
Hum
%
Delta-T
°C
Wind Press
QNH
hPa
Press
MSL
hPa
Rain
since 9 am
mm
Dir
 
Spd
km/h
Gust
km/h
Spd
kts
Gust
kts
29/10:30am 26.6 23.3 9.5 34 9.4 NNE 17 24 9 13 1009.1 1009.1 0.0
29/10:00am 25.2 21.9 9.5 37 8.6 NNE 17 22 9 12 1009.1 1009.1 0.0
29/09:30am 22.5 19.3 11.9 51 6.0 NNE 20 26 11 14 1009.5 1009.5 0.0
29/09:00am 22.0 18.6 11.4 51 5.9 NE 20 26 11 14 1009.8 1009.8 0.0
29/08:30am 22.1 18.6 10.3 47 6.5 NNE 19 24 10 13 1010.3 1010.3 0.0
29/08:00am 22.4 18.6 9.2 43 7.1 NNE 19 24 10 13 1010.1 1010.1 0.0
29/07:30am 22.0 18.1 8.5 42 7.1 NNE 19 24 10 13 1010.1 1010.1 0.0
29/07:00am 20.9 17.3 8.5 45 6.5 NE 17 20 9 11 1010.4 1010.4 0.0
29/06:30am 20.2 16.2 8.2 46 6.2 NNE 19 22 10 12 1010.5 1010.5 0.0
29/06:00am 19.9 15.9 8.3 47 6.0 NNE 19 22 10 12 1010.4 1010.4 0.0
29/05:30am 20.0 16.4 8.4 47 6.1 NNE 17 20 9 11 1010.1 1010.1 0.0
29/05:00am 20.3 16.6 8.0 45 6.4 NNE 17 20 9 11 1010.1 1010.1 0.0
29/04:30am 20.4 16.3 7.7 44 6.6 NNE 19 22 10 12 1010.5 1010.5 0.0
29/04:00am 20.2 16.1 8.5 47 6.1 NNE 20 26 11 14 1010.5 1010.5 0.0
29/03:30am 20.0 16.0 9.0 49 5.8 NNE 20 22 11 12 1010.6 1010.6 0.0
29/03:00am 19.8 16.6 10.0 53 5.3 NE 17 20 9 11 1011.0 1011.0 0.0
29/02:30am 20.1 16.3 9.9 52 5.5 NNE 20 24 11 13 1011.5 1011.5 0.0
29/02:00am 20.6 16.8 9.2 48 6.1 NNE 19 24 10 13 1011.7 1011.7 0.0
29/01:30am 21.1 18.0 8.7 45 6.5 NE 15 20 8 11 1012.0 1012.0 0.0
29/01:00am 21.3 17.3 8.9 45 6.6 NE 20 26 11 14 1012.6 1012.6 0.0
29/12:30am 20.4 17.2 9.9 51 5.6 NE 17 26 9 14 1013.0 1013.0 0.0
29/12:00am 20.9 17.5 10.7 52 5.6 NE 19 24 10 13 1013.0 1013.0 0.0
 
Date/Time
CDT
Temp
°C
App
Temp
°C
Dew
Point
Rel
Hum
%
Delta-T
°C
Wind Press
QNH
hPa
Press
MSL
hPa
Rain
since 9 am
mm
Dir
 
Spd
km/h
Gust
km/h
Spd
kts
Gust
kts
28/11:30pm 21.0 17.5 10.2 50 5.9 NE 19 22 10 12 1013.4 1013.4 0.0
28/11:00pm 21.6 17.9 7.8 41 7.2 N 17 20 9 11 1013.7 1013.7 0.0
28/10:30pm 22.9 18.6 5.3 32 8.8 NE 17 26 9 14 1013.8 1013.8 0.0
28/10:00pm 22.7 19.1 5.2 32 8.7 NE 13 19 7 10 1013.9 1013.9 0.0
28/09:30pm 22.5 19.2 6.3 35 8.2 NNE 13 19 7 10 1013.8 1013.8 0.0
28/09:00pm 22.8 19.5 6.6 35 8.3 NE 13 17 7 9 1013.8 1013.8 0.0
28/08:30pm 23.4 20.4 5.8 32 8.9 ENE 11 19 6 10 1013.8 1013.8 0.0
28/08:00pm 24.9 21.1 5.7 29 9.8 E 15 20 8 11 1013.6 1013.6 0.0
28/07:30pm 27.5 23.8 6.3 26 11.1 ESE 15 24 8 13 1013.5 1013.5 0.0
28/07:00pm 28.6 23.4 5.5 23 12.0 E 22 30 12 16 1013.3 1013.3 0.0
28/06:30pm 28.8 23.7 6.2 24 11.9 E 22 30 12 16 1013.2 1013.2 0.0
28/06:00pm 30.1 25.6 6.1 22 12.7 E 19 28 10 15 1013.2 1013.2 0.0
28/05:30pm 31.4 28.6 7.1 22 13.2 NE 11 19 6 10 1013.3 1013.3 0.0
28/05:00pm 31.2 28.2 9.4 26 12.3 SW 15 19 8 10 1013.3 1013.3 0.0
28/04:30pm 32.0 28.4 8.3 23 13.2 SW 17 20 9 11 1013.7 1013.7 0.0
28/04:00pm 30.1 26.8 9.6 28 11.5 SW 17 20 9 11 1014.0 1014.0 0.0
28/03:30pm 29.8 26.8 9.3 28 11.4 SW 15 20 8 11 1014.4 1014.4 0.0
28/03:00pm 30.2 28.6 8.6 26 11.9 NE 7 15 4 8 1015.0 1015.0 0.0
28/02:30pm 29.9 28.1 7.8 25 12.0 ESE 7 19 4 10 1015.3 1015.3 0.0
28/02:00pm 29.3 26.7 7.8 26 11.7 ENE 11 26 6 14 1015.9 1015.9 0.0
28/01:30pm 28.5 25.2 8.2 28 11.1 ENE 15 22 8 12 1016.3 1016.3 0.0
28/01:00pm 27.7 24.6 9.0 31 10.3 ENE 15 26 8 14 1016.7 1016.7 0.0
28/12:30pm 26.4 22.7 9.3 34 9.4 ENE 19 24 10 13 1017.0 1017.0 0.0
28/12:00pm 25.3 21.4 9.6 37 8.6 ENE 20 28 11 15 1017.3 1017.3 0.0
28/11:30am 26.4 22.4 10.5 37 8.9 ENE 22 28 12 15 1017.5 1017.5 0.0
28/11:00am 24.5 20.2 10.8 42 7.6 ENE 24 30 13 16 1017.6 1017.6 0.0
28/10:30am 24.1 19.7 10.4 42 7.6 ENE 24 32 13 17 1017.9 1017.9 0.0
28/10:00am 23.8 20.5 11.5 46 6.9 ENE 20 30 11 16 1018.1 1018.1 0.0
28/09:30am 22.3 18.7 11.7 51 5.9 ENE 22 30 12 16 1018.5 1018.4 0.0
28/09:00am 20.4 16.7 11.6 57 4.9 ENE 22 28 12 15 1018.9 1018.8 0.0
28/08:30am 19.3 15.5 11.3 60 4.4 ENE 22 28 12 15 1018.9 1018.8 0.0
28/08:00am 18.4 15.1 11.5 64 3.8 NE 20 24 11 13 1018.9 1018.8 0.0
28/07:30am 17.3 15.3 11.6 69 3.1 ENE 13 17 7 9 1018.7 1018.6 0.0
28/07:00am 16.1 13.7 11.5 74 2.5 ENE 15 20 8 11 1018.7 1018.6 0.0
28/06:30am 15.3 12.5 11.5 78 2.0 ENE 17 22 9 12 1018.6 1018.5 0.0
28/06:00am 15.0 12.6 11.4 79 1.9 ENE 15 19 8 10 1018.5 1018.4 0.0
28/05:30am 13.5 12.6 10.5 82 1.6 E 6 13 3 7 1018.4 1018.3 0.0
28/05:00am 14.0 13.8 10.6 80 1.8 ESE 2 4 1 2 1018.4 1018.3 0.0
28/04:30am 14.8 12.3 11.2 79 1.9 ENE 15 17 8 9 1018.2 1018.2 0.0
28/04:00am 14.7 12.6 11.3 80 1.8 ENE 13 17 7 9 1018.2 1018.2 0.0
28/03:30am 14.0 12.5 10.4 79 1.9 E 9 13 5 7 1018.1 1018.1 0.0
28/03:00am 15.1 12.7 11.5 79 1.9 ENE 15 20 8 11 1018.4 1018.3 0.0
28/02:30am 15.1 12.7 11.5 79 1.9 ENE 15 20 8 11 1018.8 1018.7 0.0
28/02:00am 15.4 12.3 11.6 78 2.0 E 19 26 10 14 1019.0 1018.9 0.0
28/01:30am 15.8 12.7 11.6 76 2.3 ENE 19 26 10 14 1019.2 1019.1 0.0
28/01:00am 15.4 14.1 11.2 76 2.2 ENE 9 13 5 7 1019.2 1019.1 0.0
28/12:30am 15.2 13.8 10.8 75 2.3 E 9 13 5 7 1019.6 1019.5 0.0
28/12:00am 16.4 13.5 11.1 71 2.8 ESE 17 20 9 11 1019.8 1019.7 0.0
 
Date/Time
CDT
Temp
°C
App
Temp
°C
Dew
Point
Rel
Hum
%
Delta-T
°C
Wind Press
QNH
hPa
Press
MSL
hPa
Rain
since 9 am
mm
Dir
 
Spd
km/h
Gust
km/h
Spd
kts
Gust
kts
27/11:30pm 16.7 14.1 10.8 68 3.1 ESE 15 19 8 10 1020.1 1020.0 0.0
27/11:00pm 17.3 16.3 10.9 66 3.4 ENE 7 13 4 7 1020.3 1020.2 0.0
27/10:30pm 17.6 16.0 10.2 62 3.9 E 9 13 5 7 1020.4 1020.3 0.0
27/10:00pm 17.4 15.6 9.3 59 4.2 ESE 9 13 5 7 1020.5 1020.4 0.0
27/09:30pm 17.9 15.4 9.8 59 4.3 ESE 13 19 7 10 1020.4 1020.3 0.0
27/09:00pm 18.7 15.8 9.8 56 4.7 ESE 15 20 8 11 1020.3 1020.2 0.0
27/08:30pm 19.7 15.8 8.7 49 5.7 ESE 19 26 10 14 1020.3 1020.2 0.0
27/08:00pm 21.2 17.4 7.4 41 7.1 ESE 17 24 9 13 1020.4 1020.3 0.0
27/07:30pm 22.6 18.6 8.3 40 7.5 ESE 19 26 10 14 1020.4 1020.3 0.0
27/07:00pm 23.1 18.2 8.4 39 7.8 ESE 24 30 13 16 1020.3 1020.2 0.0
27/06:30pm 23.4 18.6 8.7 39 7.8 ESE 24 32 13 17 1020.1 1020.0 0.0
27/06:00pm 24.4 19.3 9.2 38 8.2 SE 26 33 14 18 1020.2 1020.1 0.0
27/05:30pm 25.0 20.3 9.3 37 8.5 SE 24 33 13 18 1020.2 1020.1 0.0
27/05:00pm 25.9 21.0 8.4 33 9.4 SE 24 32 13 17 1020.3 1020.2 0.0
27/04:30pm 26.0 23.0 9.4 35 9.1 SSE 15 22 8 12 1020.3 1020.2 0.0
27/04:00pm 26.8 23.2 8.3 31 10.0 SE 17 33 9 18 1020.5 1020.4 0.0
27/03:30pm 26.5 23.3 8.5 32 9.7 ESE 15 26 8 14 1020.5 1020.4 0.0
27/03:00pm 26.2 22.3 8.7 33 9.5 SSE 19 28 10 15 1020.6 1020.5 0.0
27/02:30pm 27.1 24.5 9.5 33 9.7 ESE 13 28 7 15 1020.7 1020.6 0.0
27/02:00pm 26.3 22.5 9.2 34 9.4 SE 19 24 10 13 1021.0 1020.9 0.0
27/01:30pm 25.1 22.2 9.8 38 8.4 E 15 24 8 13 1021.3 1021.2 0.0
27/01:00pm 25.4 23.2 10.8 40 8.2 E 13 26 7 14 1021.5 1021.4 0.0
27/12:30pm 24.6 21.6 10.8 42 7.7 ESE 17 19 9 10 1021.7 1021.6 0.0
27/12:00pm 23.8 20.7 11.5 46 6.9 E 19 32 10 17 1022.1 1022.0 0.0
27/11:30am 23.5 20.3 11.9 48 6.5 E 20 30 11 16 1022.0 1021.9 0.0
27/11:00am 24.3 20.8 12.3 47 6.9 E 22 33 12 18 1022.2 1022.1 0.0
27/10:30am 22.0 17.6 11.7 52 5.7 E 26 35 14 19 1022.3 1022.2 0.0
27/10:00am 21.6 16.9 11.9 54 5.4 E 28 37 15 20 1022.5 1022.4 0.0
27/09:30am 20.5 15.9 12.2 59 4.6 E 28 37 15 20 1022.9 1022.8 0.0
27/09:00am 19.5 14.4 12.0 62 4.2 E 30 41 16 22 1023.1 1023.0 0.0
27/08:30am 18.4 13.2 11.7 65 3.7 E 30 39 16 21 1023.1 1023.0 0.0
27/08:00am 18.0 13.6 11.8 67 3.4 E 26 33 14 18 1023.1 1023.0 0.0
27/07:30am 17.0 12.2 11.5 70 3.0 E 28 37 15 20 1022.7 1022.6 0.0
27/07:00am 16.1 12.1 11.7 75 2.4 E 24 33 13 18 1022.4 1022.3 0.0
27/06:30am 15.9 12.2 11.5 75 2.4 E 22 30 12 16 1022.4 1022.3 0.0
27/06:00am 16.1 13.0 11.7 75 2.4 E 19 26 10 14 1022.3 1022.2 0.0
27/05:30am 15.7 13.7 11.5 76 2.3 E 13 19 7 10 1022.3 1022.2 0.0
27/05:00am 15.8 12.6 11.4 75 2.4 E 19 28 10 15 1021.9 1021.8 0.0
27/04:30am 15.8 13.3 11.2 74 2.5 ESE 15 22 8 12 1021.9 1021.8 0.0
27/04:00am 15.2 12.3 11.0 76 2.2 E 17 22 9 12 1021.8 1021.7 0.0
27/03:30am 15.1 12.6 10.9 76 2.2 E 15 20 8 11 1021.6 1021.5 0.0
27/03:00am 15.2 12.6 10.8 75 2.3 ESE 15 20 8 11 1021.8 1021.7 0.0
27/02:30am 15.7 12.5 11.1 74 2.5 ESE 19 28 10 15 1021.8 1021.7 0.0
27/02:00am 15.8 13.0 11.2 74 2.5 ESE 17 22 9 12 1022.4 1022.3 0.0
27/01:30am 15.5 13.1 11.5 77 2.1 SE 15 22 8 12 1022.7 1022.6 0.0
27/01:00am 14.3 13.1 11.5 83 1.5 SSE 9 13 5 7 1023.1 1023.0 0.0
27/12:30am 14.5 12.9 11.7 83 1.5 SE 11 17 6 9 1023.3 1023.2 0.0
27/12:00am 14.4 12.1 11.9 85 1.3 SSE 15 20 8 11 1023.3 1023.2 0.0
 
Date/Time
CDT
Temp
°C
App
Temp
°C
Dew
Point
Rel
Hum
%
Delta-T
°C
Wind Press
QNH
hPa
Press
MSL
hPa
Rain
since 9 am
mm
Dir
 
Spd
km/h
Gust
km/h
Spd
kts
Gust
kts
26/11:30pm 14.5 12.5 11.5 82 1.6 SE 13 17 7 9 1023.7 1023.6 0.0
26/11:00pm 14.6 12.2 11.4 81 1.7 SE 15 20 8 11 1024.0 1023.9 0.0
26/10:30pm 14.4 12.6 10.8 79 1.9 SSE 11 15 6 8 1024.0 1023.9 0.0
26/10:00pm 14.8 12.6 10.8 77 2.1 SE 13 19 7 10 1023.7 1023.6 0.0
26/09:30pm 15.3 11.7 10.7 74 2.4 SE 20 32 11 17 1023.4 1023.3 0.0
26/09:00pm 15.9 12.5 10.7 71 2.8 SE 19 26 10 14 1023.2 1023.1 0.0
26/08:30pm 16.8 13.2 10.4 66 3.4 SE 20 26 11 14 1022.9 1022.8 0.0
26/08:00pm 17.9 13.8 10.0 60 4.2 SE 22 30 12 16 1022.8 1022.7 0.0
26/07:30pm 19.3 15.4 9.5 53 5.2 ESE 20 30 11 16 1022.6 1022.5 0.0
26/07:00pm 19.6 15.3 9.5 52 5.4 SE 22 32 12 17 1022.4 1022.3 0.0
26/06:30pm 20.1 15.5 9.7 51 5.5 SE 24 35 13 19 1022.2 1022.1 0.0
26/06:00pm 20.7 16.5 9.6 49 5.9 SE 22 33 12 18 1022.1 1022.0 0.0
26/05:30pm 22.0 18.0 9.2 44 6.8 ESE 20 32 11 17 1021.9 1021.8 0.0
26/05:00pm 21.0 17.4 10.5 51 5.7 SE 20 30 11 16 1021.8 1021.7 0.0
26/04:30pm 21.0 15.2 10.8 52 5.6 S 32 46 17 25 1021.9 1021.8 0.0
26/04:00pm 22.0 16.2 10.8 49 6.2 S 32 41 17 22 1021.8 1021.7 0.0
26/03:30pm 21.7 15.9 10.8 50 6.0 S 32 41 17 22 1022.2 1022.1 0.0
26/03:00pm 21.9 16.4 10.4 48 6.3 S 30 37 16 20 1022.1 1022.0 0.0
26/02:30pm 22.1 16.2 10.3 47 6.4 SSW 32 43 17 23 1022.3 1022.2 0.0
26/02:00pm 21.9 16.0 10.4 48 6.3 SSW 32 39 17 21 1022.8 1022.7 0.0
26/01:30pm 21.1 15.3 9.4 47 6.2 SSW 30 39 16 21 1022.9 1022.8 0.0
26/01:00pm 20.3 15.3 9.5 50 5.8 SSW 26 37 14 20 1023.3 1023.2 0.0
26/12:43pm 20.6 14.7 9.2 48 6.1 S 30 39 16 21 1023.3 1023.2 0.0
26/12:30pm 21.3 18.4 6.4 38 7.5 ESE 11 17 6 9 1023.5 1023.4 0.0
26/12:00pm 21.1 17.1 6.6 39 7.3 E 17 26 9 14 1023.8 1023.7 0.0
26/11:30am 20.7 17.1 6.6 40 7.1 SE 15 26 8 14 1023.9 1023.8 0.0
26/11:00am 19.8 16.4 7.5 45 6.3 ESE 15 24 8 13 1023.9 1023.8 0.0

Other Formats:

Comma delimited format used in spreadsheet applications
http://www.bom.gov.au/fwo/IDS60801/IDS60801.94658.axf

JavaScript Object Notation format (JSON) in row-major order
http://www.bom.gov.au/fwo/IDS60801/IDS60801.94658.json